Whitingham, VT

2:03 AM EST on January 28, 2015 (GMT -0500)
Harriman And West | Change Station
CLOSE
Current Station
Airport
Location: North Adams,
Elevation: 653 ft
Nearby Weather Stations

Elev 653 ft 42.70 °N, 73.17 °W | Updated 11 minutes ago

Overcast
Overcast
10 °F
Feels Like -4 °F
N
12
Wind Variable Wind from West
Gusts 17 mph

Today
High -- | Low -- °F
--% Chance of Precip.
Yesterday
High -- | Low -- °F
Precip. -- in
7:10 AM 4:59 PM
First Quarter, 62% visible
Pressure 29.86 in
Visibility 10.0 miles
Clouds Few 3000 ft
Mostly Cloudy 8000 ft
Overcast 10000 ft
Windchill -4 °F
Dew Point 1 °F
Humidity 67%
Rainfall 0.00 in
Snow Depth Not available.
UV 0 out of 12
Pollen .10 out of 12
Air Quality Not available.
Flu Activity Not available.
METAR KAQW 280652Z AUTO 28010G15KT 10SM FEW030 BKN080 OVC100 M12/M17 A2981 RMK AO2 SNB03E31 SLP109 P0000 T11221172

More Conditions Fewer Conditions

Pressure 29.86 in
Visibility 10.0 miles
Clouds Few 3000 ft
Mostly Cloudy 8000 ft
Overcast 10000 ft
Windchill -4 °F
Dew Point 1 °F
Humidity 67%
Rainfall 0.00 in
Snow Depth Not available.
UV 0 out of 12
Pollen .10 out of 12
Air Quality Not available.
Flu Activity Not available.
METAR KAQW 280652Z AUTO 28010G15KT 10SM FEW030 BKN080 OVC100 M12/M17 A2981 RMK AO2 SNB03E31 SLP109 P0000 T11221172

More Conditions Fewer Conditions

10-Day Weather Forecast

Almanac

Astronomy

Jan. 28, 2015 Rise Set
Actual Time
Civil Twilight
Nautical Twilight
Astronomical Twilight
Moon
Length of Visible Light
Length of Day
Tomorrow will be .
, % of the Moon is Illuminated

Today's Extremes

State Highs State Lows

Community

WunderPhotos

Upload Photos

1,791,118 photos uploaded!

WunderBlogs® & News

Nearby

Air Quality

  Air Quality AQ Index Pollutant
Not available.

Snow Depth

Station Depth Elevation

Earthquake Activity

City Distance Mag. Time & Date
Minimum magnitude displayed is 2.5.

Coastal Water Temperatures

Place Temperature

Nearby Weather Stations